sensor_id;sensor_type;location;lat;lon;timestamp;temperature;humidity
73133;DHT22;61320;52.008;4.530;2022-10-31T00:02:17;15.93;79.38
73133;DHT22;61320;52.008;4.530;2022-10-31T00:04:42;15.95;76.73
73133;DHT22;61320;52.008;4.530;2022-10-31T00:07:08;15.91;78.05
73133;DHT22;61320;52.008;4.530;2022-10-31T00:09:33;15.95;77.23
73133;DHT22;61320;52.008;4.530;2022-10-31T00:11:59;16.00;77.71
73133;DHT22;61320;52.008;4.530;2022-10-31T00:14:24;15.97;77.54
73133;DHT22;61320;52.008;4.530;2022-10-31T00:16:49;15.88;76.82
73133;DHT22;61320;52.008;4.530;2022-10-31T00:19:16;15.88;78.31
73133;DHT22;61320;52.008;4.530;2022-10-31T00:21:42;15.93;76.76
73133;DHT22;61320;52.008;4.530;2022-10-31T00:24:07;15.98;78.54
73133;DHT22;61320;52.008;4.530;2022-10-31T00:26:33;16.06;78.22
73133;DHT22;61320;52.008;4.530;2022-10-31T00:28:59;16.05;77.43
73133;DHT22;61320;52.008;4.530;2022-10-31T00:31:25;16.08;77.73
73133;DHT22;61320;52.008;4.530;2022-10-31T00:33:51;16.05;76.85
73133;DHT22;61320;52.008;4.530;2022-10-31T00:36:18;15.98;77.18
73133;DHT22;61320;52.008;4.530;2022-10-31T00:38:45;15.94;77.90
73133;DHT22;61320;52.008;4.530;2022-10-31T00:41:12;15.94;78.06
73133;DHT22;61320;52.008;4.530;2022-10-31T00:43:38;15.94;78.50
73133;DHT22;61320;52.008;4.530;2022-10-31T00:46:03;15.93;76.86
73133;DHT22;61320;52.008;4.530;2022-10-31T00:48:29;15.90;77.89
73133;DHT22;61320;52.008;4.530;2022-10-31T00:50:55;15.90;76.18
73133;DHT22;61320;52.008;4.530;2022-10-31T00:53:20;15.77;75.85
73133;DHT22;61320;52.008;4.530;2022-10-31T00:55:46;15.68;77.61
73133;DHT22;61320;52.008;4.530;2022-10-31T00:58:11;15.71;77.04
73133;DHT22;61320;52.008;4.530;2022-10-31T01:00:37;15.64;78.09
73133;DHT22;61320;52.008;4.530;2022-10-31T01:03:03;15.67;78.99
73133;DHT22;61320;52.008;4.530;2022-10-31T01:05:28;15.66;76.49
73133;DHT22;61320;52.008;4.530;2022-10-31T01:07:53;15.61;77.39
73133;DHT22;61320;52.008;4.530;2022-10-31T01:10:19;15.63;77.24
73133;DHT22;61320;52.008;4.530;2022-10-31T01:12:47;15.64;77.65
73133;DHT22;61320;52.008;4.530;2022-10-31T01:15:15;15.58;77.54
73133;DHT22;61320;52.008;4.530;2022-10-31T01:17:41;15.61;78.15
73133;DHT22;61320;52.008;4.530;2022-10-31T01:20:07;15.57;77.33
73133;DHT22;61320;52.008;4.530;2022-10-31T01:22:34;15.57;78.02
73133;DHT22;61320;52.008;4.530;2022-10-31T01:25:00;15.60;77.42
73133;DHT22;61320;52.008;4.530;2022-10-31T01:27:26;15.51;76.45
73133;DHT22;61320;52.008;4.530;2022-10-31T01:29:51;15.47;77.51
73133;DHT22;61320;52.008;4.530;2022-10-31T01:32:17;15.43;77.84
73133;DHT22;61320;52.008;4.530;2022-10-31T01:34:42;15.47;77.82
73133;DHT22;61320;52.008;4.530;2022-10-31T01:37:07;15.43;77.64
73133;DHT22;61320;52.008;4.530;2022-10-31T01:39:33;15.47;78.02
73133;DHT22;61320;52.008;4.530;2022-10-31T01:41:59;15.47;78.27
73133;DHT22;61320;52.008;4.530;2022-10-31T01:49:33;15.56;78.80
73133;DHT22;61320;52.008;4.530;2022-10-31T01:52:12;15.54;78.23
73133;DHT22;61320;52.008;4.530;2022-10-31T01:54:48;15.54;77.85
73133;DHT22;61320;52.008;4.530;2022-10-31T01:57:18;15.51;77.46
73133;DHT22;61320;52.008;4.530;2022-10-31T01:59:49;15.50;78.58
73133;DHT22;61320;52.008;4.530;2022-10-31T02:02:18;15.46;78.49
73133;DHT22;61320;52.008;4.530;2022-10-31T02:04:46;15.46;78.10
73133;DHT22;61320;52.008;4.530;2022-10-31T02:07:17;15.43;78.12
73133;DHT22;61320;52.008;4.530;2022-10-31T02:09:46;15.33;76.24
73133;DHT22;61320;52.008;4.530;2022-10-31T02:12:13;15.29;76.92
73133;DHT22;61320;52.008;4.530;2022-10-31T02:14:40;15.20;75.36
73133;DHT22;61320;52.008;4.530;2022-10-31T02:17:06;15.10;76.70
73133;DHT22;61320;52.008;4.530;2022-10-31T02:22:13;14.98;77.69
73133;DHT22;61320;52.008;4.530;2022-10-31T02:24:57;14.99;77.99
73133;DHT22;61320;52.008;4.530;2022-10-31T02:36:21;14.96;78.54
73133;DHT22;61320;52.008;4.530;2022-10-31T02:42:39;14.91;78.15
73133;DHT22;61320;52.008;4.530;2022-10-31T02:47:38;14.84;78.86
73133;DHT22;61320;52.008;4.530;2022-10-31T02:52:39;14.84;78.62
73133;DHT22;61320;52.008;4.530;2022-10-31T02:55:12;14.82;78.36
73133;DHT22;61320;52.008;4.530;2022-10-31T02:57:40;14.81;78.82
73133;DHT22;61320;52.008;4.530;2022-10-31T03:00:08;14.79;78.18
73133;DHT22;61320;52.008;4.530;2022-10-31T03:11:03;14.57;78.79
73133;DHT22;61320;52.008;4.530;2022-10-31T03:13:51;14.67;78.36
73133;DHT22;61320;52.008;4.530;2022-10-31T03:19:15;14.69;78.55
73133;DHT22;61320;52.008;4.530;2022-10-31T03:21:50;14.71;77.89
73133;DHT22;61320;52.008;4.530;2022-10-31T03:24:20;14.67;78.34
73133;DHT22;61320;52.008;4.530;2022-10-31T03:26:53;14.67;78.77
73133;DHT22;61320;52.008;4.530;2022-10-31T03:29:24;14.72;80.13
73133;DHT22;61320;52.008;4.530;2022-10-31T03:32:16;14.74;78.55
73133;DHT22;61320;52.008;4.530;2022-10-31T03:34:45;14.78;78.46
73133;DHT22;61320;52.008;4.530;2022-10-31T03:37:17;14.79;77.86
73133;DHT22;61320;52.008;4.530;2022-10-31T03:39:45;14.74;79.04
73133;DHT22;61320;52.008;4.530;2022-10-31T03:42:23;14.68;77.51
73133;DHT22;61320;52.008;4.530;2022-10-31T03:45:04;14.75;79.43
73133;DHT22;61320;52.008;4.530;2022-10-31T03:47:33;14.72;78.61
73133;DHT22;61320;52.008;4.530;2022-10-31T03:50:00;14.78;80.46
73133;DHT22;61320;52.008;4.530;2022-10-31T03:55:29;14.77;78.24
73133;DHT22;61320;52.008;4.530;2022-10-31T03:58:12;14.78;79.04
73133;DHT22;61320;52.008;4.530;2022-10-31T04:00:43;14.78;79.01
73133;DHT22;61320;52.008;4.530;2022-10-31T04:03:14;14.81;80.38
73133;DHT22;61320;52.008;4.530;2022-10-31T04:05:43;14.86;79.98
73133;DHT22;61320;52.008;4.530;2022-10-31T04:08:15;14.91;79.28
73133;DHT22;61320;52.008;4.530;2022-10-31T04:10:46;14.91;78.82
73133;DHT22;61320;52.008;4.530;2022-10-31T04:13:17;14.89;79.35
73133;DHT22;61320;52.008;4.530;2022-10-31T04:15:46;14.86;78.29
73133;DHT22;61320;52.008;4.530;2022-10-31T04:18:12;14.86;79.22
73133;DHT22;61320;52.008;4.530;2022-10-31T04:20:40;14.88;78.65
73133;DHT22;61320;52.008;4.530;2022-10-31T04:23:20;14.88;77.83
73133;DHT22;61320;52.008;4.530;2022-10-31T04:25:45;14.88;78.69
73133;DHT22;61320;52.008;4.530;2022-10-31T04:28:11;14.88;79.01
73133;DHT22;61320;52.008;4.530;2022-10-31T04:30:37;14.89;79.53
73133;DHT22;61320;52.008;4.530;2022-10-31T04:33:02;14.92;80.41
73133;DHT22;61320;52.008;4.530;2022-10-31T04:35:27;14.95;79.43
73133;DHT22;61320;52.008;4.530;2022-10-31T04:37:53;14.93;78.08
73133;DHT22;61320;52.008;4.530;2022-10-31T04:40:18;14.91;79.16
73133;DHT22;61320;52.008;4.530;2022-10-31T04:42:44;14.89;78.94
73133;DHT22;61320;52.008;4.530;2022-10-31T04:45:09;14.85;78.55
73133;DHT22;61320;52.008;4.530;2022-10-31T04:47:35;14.82;79.36
73133;DHT22;61320;52.008;4.530;2022-10-31T04:50:01;14.82;78.64
73133;DHT22;61320;52.008;4.530;2022-10-31T04:52:27;14.81;79.46
73133;DHT22;61320;52.008;4.530;2022-10-31T04:54:53;14.79;78.99
73133;DHT22;61320;52.008;4.530;2022-10-31T04:57:18;14.82;78.87
73133;DHT22;61320;52.008;4.530;2022-10-31T04:59:44;14.78;77.06
73133;DHT22;61320;52.008;4.530;2022-10-31T05:02:09;14.71;77.51
73133;DHT22;61320;52.008;4.530;2022-10-31T05:04:34;14.67;79.07
73133;DHT22;61320;52.008;4.530;2022-10-31T05:07:00;14.61;77.99
73133;DHT22;61320;52.008;4.530;2022-10-31T05:09:25;14.56;78.39
73133;DHT22;61320;52.008;4.530;2022-10-31T05:11:51;14.51;78.44
73133;DHT22;61320;52.008;4.530;2022-10-31T05:14:16;14.47;78.95
73133;DHT22;61320;52.008;4.530;2022-10-31T05:16:42;14.44;78.74
73133;DHT22;61320;52.008;4.530;2022-10-31T05:19:07;14.34;78.61
73133;DHT22;61320;52.008;4.530;2022-10-31T05:21:33;14.36;79.91
73133;DHT22;61320;52.008;4.530;2022-10-31T05:23:58;14.33;79.17
73133;DHT22;61320;52.008;4.530;2022-10-31T05:26:24;14.28;77.54
73133;DHT22;61320;52.008;4.530;2022-10-31T05:28:49;14.27;79.10
73133;DHT22;61320;52.008;4.530;2022-10-31T05:31:15;14.30;79.44
73133;DHT22;61320;52.008;4.530;2022-10-31T05:33:41;14.27;77.54
73133;DHT22;61320;52.008;4.530;2022-10-31T05:36:07;14.24;78.82
73133;DHT22;61320;52.008;4.530;2022-10-31T05:38:32;14.17;78.39
73133;DHT22;61320;52.008;4.530;2022-10-31T05:40:58;14.13;77.60
73133;DHT22;61320;52.008;4.530;2022-10-31T05:43:25;14.12;79.22
73133;DHT22;61320;52.008;4.530;2022-10-31T05:45:56;14.09;79.18
73133;DHT22;61320;52.008;4.530;2022-10-31T05:48:22;14.10;78.33
73133;DHT22;61320;52.008;4.530;2022-10-31T05:50:48;14.09;78.67
73133;DHT22;61320;52.008;4.530;2022-10-31T05:53:15;14.09;77.87
73133;DHT22;61320;52.008;4.530;2022-10-31T05:55:44;14.07;78.85
73133;DHT22;61320;52.008;4.530;2022-10-31T05:58:10;14.06;78.97
73133;DHT22;61320;52.008;4.530;2022-10-31T06:00:39;14.05;76.71
73133;DHT22;61320;52.008;4.530;2022-10-31T06:03:12;13.98;78.38
73133;DHT22;61320;52.008;4.530;2022-10-31T06:05:37;13.90;77.57
73133;DHT22;61320;52.008;4.530;2022-10-31T06:08:03;13.83;77.82
73133;DHT22;61320;52.008;4.530;2022-10-31T06:10:29;13.83;78.79
73133;DHT22;61320;52.008;4.530;2022-10-31T06:12:54;13.86;79.67
73133;DHT22;61320;52.008;4.530;2022-10-31T06:15:20;13.89;79.32
73133;DHT22;61320;52.008;4.530;2022-10-31T06:17:46;13.93;79.52
73133;DHT22;61320;52.008;4.530;2022-10-31T06:20:11;14.00;79.09
73133;DHT22;61320;52.008;4.530;2022-10-31T06:22:37;14.02;79.87
73133;DHT22;61320;52.008;4.530;2022-10-31T06:25:02;14.00;77.83
73133;DHT22;61320;52.008;4.530;2022-10-31T06:27:28;14.02;78.52
73133;DHT22;61320;52.008;4.530;2022-10-31T06:29:54;13.99;79.11
73133;DHT22;61320;52.008;4.530;2022-10-31T06:32:19;14.02;78.92
73133;DHT22;61320;52.008;4.530;2022-10-31T06:34:45;14.03;79.45
73133;DHT22;61320;52.008;4.530;2022-10-31T06:37:14;13.98;78.40
73133;DHT22;61320;52.008;4.530;2022-10-31T06:39:40;13.95;77.44
73133;DHT22;61320;52.008;4.530;2022-10-31T06:42:05;13.89;77.96
73133;DHT22;61320;52.008;4.530;2022-10-31T06:44:31;13.87;77.96
73133;DHT22;61320;52.008;4.530;2022-10-31T06:46:56;13.85;79.44
73133;DHT22;61320;52.008;4.530;2022-10-31T06:49:22;13.91;78.80
73133;DHT22;61320;52.008;4.530;2022-10-31T06:51:48;13.96;79.40
73133;DHT22;61320;52.008;4.530;2022-10-31T06:54:14;14.00;80.34
73133;DHT22;61320;52.008;4.530;2022-10-31T06:56:40;14.00;79.78
73133;DHT22;61320;52.008;4.530;2022-10-31T06:59:05;14.00;78.42
73133;DHT22;61320;52.008;4.530;2022-10-31T07:01:31;14.02;79.32
73133;DHT22;61320;52.008;4.530;2022-10-31T07:03:56;13.99;78.12
73133;DHT22;61320;52.008;4.530;2022-10-31T07:06:22;13.99;78.29
73133;DHT22;61320;52.008;4.530;2022-10-31T07:08:47;13.99;80.11
73133;DHT22;61320;52.008;4.530;2022-10-31T07:11:13;13.99;78.67
73133;DHT22;61320;52.008;4.530;2022-10-31T07:13:38;13.96;77.82
73133;DHT22;61320;52.008;4.530;2022-10-31T07:16:05;13.95;79.02
73133;DHT22;61320;52.008;4.530;2022-10-31T07:18:32;13.93;78.49
73133;DHT22;61320;52.008;4.530;2022-10-31T07:20:58;13.90;78.40
73133;DHT22;61320;52.008;4.530;2022-10-31T07:23:23;13.90;78.31
73133;DHT22;61320;52.008;4.530;2022-10-31T07:25:55;13.87;78.22
73133;DHT22;61320;52.008;4.530;2022-10-31T07:28:21;13.90;80.04
73133;DHT22;61320;52.008;4.530;2022-10-31T07:30:54;13.98;79.70
73133;DHT22;61320;52.008;4.530;2022-10-31T07:33:20;14.10;79.74
73133;DHT22;61320;52.008;4.530;2022-10-31T07:35:46;14.17;79.96
73133;DHT22;61320;52.008;4.530;2022-10-31T07:38:13;14.24;79.07
73133;DHT22;61320;52.008;4.530;2022-10-31T07:40:41;14.31;80.39
73133;DHT22;61320;52.008;4.530;2022-10-31T07:43:07;14.37;80.92
73133;DHT22;61320;52.008;4.530;2022-10-31T07:45:33;14.41;79.64
73133;DHT22;61320;52.008;4.530;2022-10-31T07:47:58;14.47;80.87
73133;DHT22;61320;52.008;4.530;2022-10-31T07:50:29;14.51;79.09
73133;DHT22;61320;52.008;4.530;2022-10-31T07:53:04;14.49;79.56
73133;DHT22;61320;52.008;4.530;2022-10-31T07:55:30;14.56;80.93
73133;DHT22;61320;52.008;4.530;2022-10-31T07:58:00;14.57;80.45
73133;DHT22;61320;52.008;4.530;2022-10-31T08:00:26;14.65;80.58
73133;DHT22;61320;52.008;4.530;2022-10-31T08:03:10;14.72;80.87
73133;DHT22;61320;52.008;4.530;2022-10-31T08:05:37;14.79;80.10
73133;DHT22;61320;52.008;4.530;2022-10-31T08:08:04;14.85;79.18
73133;DHT22;61320;52.008;4.530;2022-10-31T08:10:30;14.85;80.41
73133;DHT22;61320;52.008;4.530;2022-10-31T08:13:02;14.92;80.34
73133;DHT22;61320;52.008;4.530;2022-10-31T08:15:28;14.96;80.60
73133;DHT22;61320;52.008;4.530;2022-10-31T08:17:53;15.02;79.99
73133;DHT22;61320;52.008;4.530;2022-10-31T08:20:20;15.05;80.47
73133;DHT22;61320;52.008;4.530;2022-10-31T08:23:04;15.10;79.96
73133;DHT22;61320;52.008;4.530;2022-10-31T08:25:32;15.22;78.99
73133;DHT22;61320;52.008;4.530;2022-10-31T08:27:58;15.22;79.64
73133;DHT22;61320;52.008;4.530;2022-10-31T08:30:26;15.19;78.75
73133;DHT22;61320;52.008;4.530;2022-10-31T08:33:02;15.27;79.06
73133;DHT22;61320;52.008;4.530;2022-10-31T08:35:28;15.30;79.47
73133;DHT22;61320;52.008;4.530;2022-10-31T08:37:55;15.37;78.67
73133;DHT22;61320;52.008;4.530;2022-10-31T08:40:22;15.46;78.28
73133;DHT22;61320;52.008;4.530;2022-10-31T08:43:04;15.47;78.51
73133;DHT22;61320;52.008;4.530;2022-10-31T08:45:32;15.51;79.28
73133;DHT22;61320;52.008;4.530;2022-10-31T08:47:59;15.61;78.34
73133;DHT22;61320;52.008;4.530;2022-10-31T08:50:26;15.66;78.30
73133;DHT22;61320;52.008;4.530;2022-10-31T08:52:52;15.66;79.07
73133;DHT22;61320;52.008;4.530;2022-10-31T08:55:18;15.70;78.21
73133;DHT22;61320;52.008;4.530;2022-10-31T08:57:43;15.73;79.14
73133;DHT22;61320;52.008;4.530;2022-10-31T09:00:09;15.77;79.19
73133;DHT22;61320;52.008;4.530;2022-10-31T09:02:37;15.84;78.64
73133;DHT22;61320;52.008;4.530;2022-10-31T09:05:04;15.91;79.18
73133;DHT22;61320;52.008;4.530;2022-10-31T09:07:29;15.88;78.65
73133;DHT22;61320;52.008;4.530;2022-10-31T09:09:55;15.93;78.47
73133;DHT22;61320;52.008;4.530;2022-10-31T09:12:21;15.97;78.72
73133;DHT22;61320;52.008;4.530;2022-10-31T09:14:49;16.04;78.10
73133;DHT22;61320;52.008;4.530;2022-10-31T09:17:14;16.08;78.69
73133;DHT22;61320;52.008;4.530;2022-10-31T09:19:40;16.08;77.93
73133;DHT22;61320;52.008;4.530;2022-10-31T09:22:05;16.06;79.05
73133;DHT22;61320;52.008;4.530;2022-10-31T09:24:31;16.18;79.46
73133;DHT22;61320;52.008;4.530;2022-10-31T09:26:58;16.18;78.91
73133;DHT22;61320;52.008;4.530;2022-10-31T09:29:24;16.21;79.09
73133;DHT22;61320;52.008;4.530;2022-10-31T09:31:49;16.22;79.55
73133;DHT22;61320;52.008;4.530;2022-10-31T09:34:15;16.28;79.46
73133;DHT22;61320;52.008;4.530;2022-10-31T09:36:40;16.32;79.51
73133;DHT22;61320;52.008;4.530;2022-10-31T09:39:09;16.39;79.10
73133;DHT22;61320;52.008;4.530;2022-10-31T09:50:06;16.84;77.52
73133;DHT22;61320;52.008;4.530;2022-10-31T09:52:41;16.94;78.16
73133;DHT22;61320;52.008;4.530;2022-10-31T09:55:19;17.00;78.12
73133;DHT22;61320;52.008;4.530;2022-10-31T09:57:47;17.07;77.76
73133;DHT22;61320;52.008;4.530;2022-10-31T10:00:20;17.11;77.93
73133;DHT22;61320;52.008;4.530;2022-10-31T10:03:12;17.14;77.69
73133;DHT22;61320;52.008;4.530;2022-10-31T10:08:32;17.22;77.47
73133;DHT22;61320;52.008;4.530;2022-10-31T10:11:40;17.25;77.62
73133;DHT22;61320;52.008;4.530;2022-10-31T10:16:50;17.30;77.38
73133;DHT22;61320;52.008;4.530;2022-10-31T10:19:33;17.34;77.52
73133;DHT22;61320;52.008;4.530;2022-10-31T10:22:19;17.41;77.65
73133;DHT22;61320;52.008;4.530;2022-10-31T10:30:19;17.58;77.38
73133;DHT22;61320;52.008;4.530;2022-10-31T10:32:56;17.68;77.78
73133;DHT22;61320;52.008;4.530;2022-10-31T10:35:27;17.69;77.12
73133;DHT22;61320;52.008;4.530;2022-10-31T10:38:25;17.78;77.38
73133;DHT22;61320;52.008;4.530;2022-10-31T10:40:53;17.80;76.34
73133;DHT22;61320;52.008;4.530;2022-10-31T10:43:26;17.83;76.69
73133;DHT22;61320;52.008;4.530;2022-10-31T10:49:33;17.86;76.64
73133;DHT22;61320;52.008;4.530;2022-10-31T10:52:14;17.89;77.27
73133;DHT22;61320;52.008;4.530;2022-10-31T10:55:01;17.96;76.74
73133;DHT22;61320;52.008;4.530;2022-10-31T11:00:02;17.99;76.22
73133;DHT22;61320;52.008;4.530;2022-10-31T11:02:32;18.01;76.08
73133;DHT22;61320;52.008;4.530;2022-10-31T11:05:01;18.03;75.44
73133;DHT22;61320;52.008;4.530;2022-10-31T11:07:40;18.06;74.77
73133;DHT22;61320;52.008;4.530;2022-10-31T11:10:11;18.07;76.04
73133;DHT22;61320;52.008;4.530;2022-10-31T11:12:39;18.09;75.56
73133;DHT22;61320;52.008;4.530;2022-10-31T11:15:20;18.10;76.52
73133;DHT22;61320;52.008;4.530;2022-10-31T11:17:50;18.18;75.88
73133;DHT22;61320;52.008;4.530;2022-10-31T11:22:45;18.31;75.45
73133;DHT22;61320;52.008;4.530;2022-10-31T11:25:25;18.29;75.45
73133;DHT22;61320;52.008;4.530;2022-10-31T11:28:09;18.29;75.52
73133;DHT22;61320;52.008;4.530;2022-10-31T11:33:29;18.29;76.38
73133;DHT22;61320;52.008;4.530;2022-10-31T11:35:57;18.26;76.52
73133;DHT22;61320;52.008;4.530;2022-10-31T11:38:32;18.21;75.77
73133;DHT22;61320;52.008;4.530;2022-10-31T11:41:11;18.24;76.57
73133;DHT22;61320;52.008;4.530;2022-10-31T11:43:45;18.21;76.54
73133;DHT22;61320;52.008;4.530;2022-10-31T11:46:19;18.20;76.71
73133;DHT22;61320;52.008;4.530;2022-10-31T11:48:53;18.18;77.15
73133;DHT22;61320;52.008;4.530;2022-10-31T11:51:26;18.20;76.88
73133;DHT22;61320;52.008;4.530;2022-10-31T11:53:59;18.24;76.07
73133;DHT22;61320;52.008;4.530;2022-10-31T11:56:37;18.20;76.38
73133;DHT22;61320;52.008;4.530;2022-10-31T11:59:05;18.20;76.44
73133;DHT22;61320;52.008;4.530;2022-10-31T12:01:32;18.26;75.80
73133;DHT22;61320;52.008;4.530;2022-10-31T12:04:06;18.34;76.09
73133;DHT22;61320;52.008;4.530;2022-10-31T12:06:38;18.38;76.48
73133;DHT22;61320;52.008;4.530;2022-10-31T12:14:30;18.59;76.60
73133;DHT22;61320;52.008;4.530;2022-10-31T12:17:14;18.61;75.99
73133;DHT22;61320;52.008;4.530;2022-10-31T12:22:44;18.62;76.21
73133;DHT22;61320;52.008;4.530;2022-10-31T12:41:11;18.73;76.31
73133;DHT22;61320;52.008;4.530;2022-10-31T12:43:52;18.76;76.57
73133;DHT22;61320;52.008;4.530;2022-10-31T12:51:53;18.78;76.07
73133;DHT22;61320;52.008;4.530;2022-10-31T12:57:35;18.73;76.84
73133;DHT22;61320;52.008;4.530;2022-10-31T13:00:12;18.71;75.84
73133;DHT22;61320;52.008;4.530;2022-10-31T13:02:54;18.73;76.70
73133;DHT22;61320;52.008;4.530;2022-10-31T13:05:36;18.72;76.28
73133;DHT22;61320;52.008;4.530;2022-10-31T13:08:16;18.72;76.40
73133;DHT22;61320;52.008;4.530;2022-10-31T13:13:47;18.71;75.83
73133;DHT22;61320;52.008;4.530;2022-10-31T13:16:24;18.65;76.99
73133;DHT22;61320;52.008;4.530;2022-10-31T13:25:25;18.64;77.00
73133;DHT22;61320;52.008;4.530;2022-10-31T13:27:30;18.64;77.30
73133;DHT22;61320;52.008;4.530;2022-10-31T13:32:41;18.69;77.15
73133;DHT22;61320;52.008;4.530;2022-10-31T13:35:37;18.73;76.74
73133;DHT22;61320;52.008;4.530;2022-10-31T13:43:37;18.68;77.16
73133;DHT22;61320;52.008;4.530;2022-10-31T13:46:23;18.65;77.71
73133;DHT22;61320;52.008;4.530;2022-10-31T13:48:50;18.64;77.33
73133;DHT22;61320;52.008;4.530;2022-10-31T13:51:27;18.65;77.23
73133;DHT22;61320;52.008;4.530;2022-10-31T13:53:57;18.64;77.29
73133;DHT22;61320;52.008;4.530;2022-10-31T13:56:34;18.61;77.76
73133;DHT22;61320;52.008;4.530;2022-10-31T14:01:35;18.62;78.03
73133;DHT22;61320;52.008;4.530;2022-10-31T14:04:05;18.64;77.52
73133;DHT22;61320;52.008;4.530;2022-10-31T14:06:47;18.62;77.96
73133;DHT22;61320;52.008;4.530;2022-10-31T14:09:26;18.62;77.64
73133;DHT22;61320;52.008;4.530;2022-10-31T14:11:53;18.62;77.82
73133;DHT22;61320;52.008;4.530;2022-10-31T14:17:17;18.62;77.45
73133;DHT22;61320;52.008;4.530;2022-10-31T14:19:59;18.61;77.05
73133;DHT22;61320;52.008;4.530;2022-10-31T14:22:32;18.59;77.36
73133;DHT22;61320;52.008;4.530;2022-10-31T14:24:58;18.58;77.62
73133;DHT22;61320;52.008;4.530;2022-10-31T14:29:49;18.59;77.63
73133;DHT22;61320;52.008;4.530;2022-10-31T14:32:23;18.59;77.54
73133;DHT22;61320;52.008;4.530;2022-10-31T14:34:55;18.59;77.71
73133;DHT22;61320;52.008;4.530;2022-10-31T14:37:47;18.58;77.46
73133;DHT22;61320;52.008;4.530;2022-10-31T14:51:01;18.47;78.19
73133;DHT22;61320;52.008;4.530;2022-10-31T14:53:31;18.44;77.38
73133;DHT22;61320;52.008;4.530;2022-10-31T14:55:59;18.44;77.97
73133;DHT22;61320;52.008;4.530;2022-10-31T14:58:38;18.44;77.68
73133;DHT22;61320;52.008;4.530;2022-10-31T15:01:06;18.41;77.81
73133;DHT22;61320;52.008;4.530;2022-10-31T15:03:33;18.44;77.42
73133;DHT22;61320;52.008;4.530;2022-10-31T15:06:05;18.37;77.32
73133;DHT22;61320;52.008;4.530;2022-10-31T15:08:44;18.34;77.44
73133;DHT22;61320;52.008;4.530;2022-10-31T15:11:24;18.29;78.32
73133;DHT22;61320;52.008;4.530;2022-10-31T15:16:38;18.24;78.11
73133;DHT22;61320;52.008;4.530;2022-10-31T15:19:10;18.23;77.78
73133;DHT22;61320;52.008;4.530;2022-10-31T15:21:43;18.21;77.93
73133;DHT22;61320;52.008;4.530;2022-10-31T15:24:15;18.20;78.45
73133;DHT22;61320;52.008;4.530;2022-10-31T15:26:46;18.20;78.45
73133;DHT22;61320;52.008;4.530;2022-10-31T15:29:18;18.23;78.06
73133;DHT22;61320;52.008;4.530;2022-10-31T15:31:58;18.20;78.40
73133;DHT22;61320;52.008;4.530;2022-10-31T15:34:29;18.20;78.20
73133;DHT22;61320;52.008;4.530;2022-10-31T15:36:57;18.20;78.25
73133;DHT22;61320;52.008;4.530;2022-10-31T15:39:22;18.20;78.67
73133;DHT22;61320;52.008;4.530;2022-10-31T15:41:54;18.20;78.49
73133;DHT22;61320;52.008;4.530;2022-10-31T15:44:24;18.26;78.69
73133;DHT22;61320;52.008;4.530;2022-10-31T15:47:06;18.20;78.18
73133;DHT22;61320;52.008;4.530;2022-10-31T15:49:50;18.20;78.36
73133;DHT22;61320;52.008;4.530;2022-10-31T15:52:46;18.14;78.04
73133;DHT22;61320;52.008;4.530;2022-10-31T15:55:22;18.13;78.53
73133;DHT22;61320;52.008;4.530;2022-10-31T15:57:52;18.13;78.65
73133;DHT22;61320;52.008;4.530;2022-10-31T16:03:23;18.10;78.67
73133;DHT22;61320;52.008;4.530;2022-10-31T16:05:53;18.10;78.40
73133;DHT22;61320;52.008;4.530;2022-10-31T16:11:29;18.04;77.93
73133;DHT22;61320;52.008;4.530;2022-10-31T16:14:04;17.97;78.97
73133;DHT22;61320;52.008;4.530;2022-10-31T16:16:32;17.97;78.60
73133;DHT22;61320;52.008;4.530;2022-10-31T16:19:00;17.97;77.99
73133;DHT22;61320;52.008;4.530;2022-10-31T16:21:34;17.92;78.68
73133;DHT22;61320;52.008;4.530;2022-10-31T16:24:15;17.90;78.87
73133;DHT22;61320;52.008;4.530;2022-10-31T16:26:51;17.92;78.79
73133;DHT22;61320;52.008;4.530;2022-10-31T16:29:44;17.86;78.96
73133;DHT22;61320;52.008;4.530;2022-10-31T16:37:41;17.86;79.03
73133;DHT22;61320;52.008;4.530;2022-10-31T16:40:12;17.89;78.81
73133;DHT22;61320;52.008;4.530;2022-10-31T16:42:41;17.87;78.66
73133;DHT22;61320;52.008;4.530;2022-10-31T16:45:08;17.87;78.94
73133;DHT22;61320;52.008;4.530;2022-10-31T16:47:38;17.87;78.81
73133;DHT22;61320;52.008;4.530;2022-10-31T16:50:10;17.86;78.46
73133;DHT22;61320;52.008;4.530;2022-10-31T16:52:37;17.87;79.11
73133;DHT22;61320;52.008;4.530;2022-10-31T16:55:02;17.86;78.62
73133;DHT22;61320;52.008;4.530;2022-10-31T16:57:30;17.86;78.57
73133;DHT22;61320;52.008;4.530;2022-10-31T16:59:57;17.86;78.76
73133;DHT22;61320;52.008;4.530;2022-10-31T17:02:23;17.82;78.12
73133;DHT22;61320;52.008;4.530;2022-10-31T17:04:48;17.79;78.67
73133;DHT22;61320;52.008;4.530;2022-10-31T17:07:14;17.76;78.51
73133;DHT22;61320;52.008;4.530;2022-10-31T17:09:39;17.73;78.53
73133;DHT22;61320;52.008;4.530;2022-10-31T17:12:13;17.69;78.14
73133;DHT22;61320;52.008;4.530;2022-10-31T17:14:47;17.65;78.47
73133;DHT22;61320;52.008;4.530;2022-10-31T17:17:15;17.62;78.70
73133;DHT22;61320;52.008;4.530;2022-10-31T17:19:40;17.59;79.35
73133;DHT22;61320;52.008;4.530;2022-10-31T17:22:12;17.53;78.95
73133;DHT22;61320;52.008;4.530;2022-10-31T17:24:38;17.53;79.29
73133;DHT22;61320;52.008;4.530;2022-10-31T17:27:03;17.51;79.29
73133;DHT22;61320;52.008;4.530;2022-10-31T17:29:29;17.49;79.33
73133;DHT22;61320;52.008;4.530;2022-10-31T17:31:54;17.45;78.66
73133;DHT22;61320;52.008;4.530;2022-10-31T17:34:20;17.45;78.76
73133;DHT22;61320;52.008;4.530;2022-10-31T17:36:50;17.41;79.06
73133;DHT22;61320;52.008;4.530;2022-10-31T17:39:16;17.38;79.20
73133;DHT22;61320;52.008;4.530;2022-10-31T17:41:42;17.38;78.77
73133;DHT22;61320;52.008;4.530;2022-10-31T17:44:09;17.35;79.40
73133;DHT22;61320;52.008;4.530;2022-10-31T17:46:35;17.36;79.15
73133;DHT22;61320;52.008;4.530;2022-10-31T17:49:01;17.31;79.17
73133;DHT22;61320;52.008;4.530;2022-10-31T17:51:27;17.28;79.19
73133;DHT22;61320;52.008;4.530;2022-10-31T17:53:53;17.30;79.38
73133;DHT22;61320;52.008;4.530;2022-10-31T17:56:18;17.28;79.55
73133;DHT22;61320;52.008;4.530;2022-10-31T17:58:43;17.28;79.47
73133;DHT22;61320;52.008;4.530;2022-10-31T18:01:13;17.25;79.56
73133;DHT22;61320;52.008;4.530;2022-10-31T18:03:39;17.24;79.00
73133;DHT22;61320;52.008;4.530;2022-10-31T18:06:06;17.20;79.28
73133;DHT22;61320;52.008;4.530;2022-10-31T18:08:34;17.17;79.51
73133;DHT22;61320;52.008;4.530;2022-10-31T18:11:15;17.18;78.95
73133;DHT22;61320;52.008;4.530;2022-10-31T18:13:41;17.20;79.76
73133;DHT22;61320;52.008;4.530;2022-10-31T18:16:09;17.17;78.95
73133;DHT22;61320;52.008;4.530;2022-10-31T18:18:35;17.15;79.17
73133;DHT22;61320;52.008;4.530;2022-10-31T18:21:00;17.12;79.31